sensor_id;sensor_type;location;lat;lon;timestamp;pressure;altitude;pressure_sealevel;temperature;humidity
51321;BME280;38732;49.556;6.286;2023-01-06T00:01:26;100194.50;;;12.29;100.00
51321;BME280;38732;49.556;6.286;2023-01-06T00:03:55;100193.00;;;12.93;100.00
51321;BME280;38732;49.556;6.286;2023-01-06T00:06:25;100191.28;;;13.06;100.00
51321;BME280;38732;49.556;6.286;2023-01-06T00:08:59;100184.41;;;13.37;100.00
51321;BME280;38732;49.556;6.286;2023-01-06T00:11:28;100180.97;;;13.49;97.31
51321;BME280;38732;49.556;6.286;2023-01-06T00:13:56;100171.41;;;13.14;98.93
51321;BME280;38732;49.556;6.286;2023-01-06T00:16:24;100175.75;;;13.24;98.45
51321;BME280;38732;49.556;6.286;2023-01-06T00:18:57;100169.72;;;13.41;96.58
51321;BME280;38732;49.556;6.286;2023-01-06T00:21:26;100171.41;;;12.99;99.04
51321;BME280;38732;49.556;6.286;2023-01-06T00:23:54;100166.97;;;12.58;100.00
51321;BME280;38732;49.556;6.286;2023-01-06T00:26:23;100155.75;;;12.56;100.00
51321;BME280;38732;49.556;6.286;2023-01-06T00:28:53;100167.72;;;12.27;100.00
51321;BME280;38732;49.556;6.286;2023-01-06T00:31:21;100163.53;;;12.59;100.00
51321;BME280;38732;49.556;6.286;2023-01-06T00:33:50;100164.00;;;11.82;100.00
51321;BME280;38732;49.556;6.286;2023-01-06T00:36:18;100168.69;;;10.35;100.00
51321;BME280;38732;49.556;6.286;2023-01-06T00:38:48;100160.06;;;11.17;100.00
51321;BME280;38732;49.556;6.286;2023-01-06T00:41:16;100165.78;;;11.86;100.00
51321;BME280;38732;49.556;6.286;2023-01-06T00:43:44;100172.09;;;12.39;100.00
51321;BME280;38732;49.556;6.286;2023-01-06T00:46:12;100169.94;;;10.70;100.00
51321;BME280;38732;49.556;6.286;2023-01-06T00:48:41;100175.66;;;11.25;100.00
51321;BME280;38732;49.556;6.286;2023-01-06T00:51:09;100173.31;;;10.63;100.00
51321;BME280;38732;49.556;6.286;2023-01-06T00:53:37;100174.34;;;11.82;100.00
51321;BME280;38732;49.556;6.286;2023-01-06T00:56:06;100175.50;;;11.08;100.00
51321;BME280;38732;49.556;6.286;2023-01-06T00:58:34;100178.22;;;11.22;100.00
51321;BME280;38732;49.556;6.286;2023-01-06T01:01:04;100173.47;;;11.76;100.00
51321;BME280;38732;49.556;6.286;2023-01-06T01:03:34;100173.19;;;11.36;100.00
51321;BME280;38732;49.556;6.286;2023-01-06T01:06:05;100167.25;;;11.51;100.00
51321;BME280;38732;49.556;6.286;2023-01-06T01:08:34;100157.09;;;11.80;100.00
51321;BME280;38732;49.556;6.286;2023-01-06T01:11:07;100164.75;;;11.64;100.00
51321;BME280;38732;49.556;6.286;2023-01-06T01:13:36;100164.75;;;11.64;100.00
51321;BME280;38732;49.556;6.286;2023-01-06T01:16:06;100161.31;;;11.67;100.00
51321;BME280;38732;49.556;6.286;2023-01-06T01:18:34;100152.06;;;11.98;100.00
51321;BME280;38732;49.556;6.286;2023-01-06T01:21:03;100157.44;;;12.46;100.00
51321;BME280;38732;49.556;6.286;2023-01-06T01:23:31;100166.53;;;11.75;100.00
51321;BME280;38732;49.556;6.286;2023-01-06T01:25:59;100168.44;;;10.90;100.00
51321;BME280;38732;49.556;6.286;2023-01-06T01:28:27;100162.66;;;12.63;100.00
51321;BME280;38732;49.556;6.286;2023-01-06T01:30:59;100167.03;;;12.79;97.62
51321;BME280;38732;49.556;6.286;2023-01-06T01:33:29;100171.31;;;12.69;98.68
51321;BME280;38732;49.556;6.286;2023-01-06T01:36:04;100172.03;;;11.05;100.00
51321;BME280;38732;49.556;6.286;2023-01-06T01:38:33;100171.34;;;11.24;100.00
51321;BME280;38732;49.556;6.286;2023-01-06T01:41:03;100174.94;;;10.54;100.00
51321;BME280;38732;49.556;6.286;2023-01-06T01:43:49;100165.63;;;11.63;100.00
51321;BME280;38732;49.556;6.286;2023-01-06T01:46:30;100166.84;;;12.24;100.00
51321;BME280;38732;49.556;6.286;2023-01-06T01:49:02;100168.66;;;12.39;100.00
51321;BME280;38732;49.556;6.286;2023-01-06T01:51:48;100165.69;;;11.77;100.00
51321;BME280;38732;49.556;6.286;2023-01-06T01:54:21;100166.88;;;11.08;100.00
51321;BME280;38732;49.556;6.286;2023-01-06T01:56:59;100165.63;;;10.67;100.00
51321;BME280;38732;49.556;6.286;2023-01-06T01:59:31;100174.00;;;10.46;100.00
51321;BME280;38732;49.556;6.286;2023-01-06T02:01:59;100166.53;;;11.75;100.00
51321;BME280;38732;49.556;6.286;2023-01-06T02:04:32;100168.69;;;10.34;100.00
51321;BME280;38732;49.556;6.286;2023-01-06T02:07:02;100175.56;;;10.35;100.00
51321;BME280;38732;49.556;6.286;2023-01-06T02:09:40;100162.19;;;10.70;100.00
51321;BME280;38732;49.556;6.286;2023-01-06T02:12:10;100172.13;;;11.15;100.00
51321;BME280;38732;49.556;6.286;2023-01-06T02:14:38;100175.19;;;10.76;100.00
51321;BME280;38732;49.556;6.286;2023-01-06T02:17:30;100168.19;;;10.64;100.00
51321;BME280;38732;49.556;6.286;2023-01-06T02:20:32;100163.13;;;11.76;100.00
51321;BME280;38732;49.556;6.286;2023-01-06T02:40:30;100161.00;;;11.26;100.00
51321;BME280;38732;49.556;6.286;2023-01-06T02:43:13;100155.19;;;11.51;100.00
51321;BME280;38732;49.556;6.286;2023-01-06T02:45:51;100150.34;;;11.96;100.00
51321;BME280;38732;49.556;6.286;2023-01-06T02:51:28;100148.28;;;11.49;100.00
51321;BME280;38732;49.556;6.286;2023-01-06T02:54:05;100143.38;;;11.89;100.00
51321;BME280;38732;49.556;6.286;2023-01-06T02:56:38;100145.03;;;11.82;100.00
51321;BME280;38732;49.556;6.286;2023-01-06T02:59:19;100144.78;;;11.45;100.00
51321;BME280;38732;49.556;6.286;2023-01-06T03:01:50;100139.50;;;11.33;100.00
51321;BME280;38732;49.556;6.286;2023-01-06T03:04:33;100128.81;;;12.09;100.00
51321;BME280;38732;49.556;6.286;2023-01-06T03:07:03;100128.06;;;12.45;100.00
51321;BME280;38732;49.556;6.286;2023-01-06T03:09:35;100126.34;;;12.47;99.65
51321;BME280;38732;49.556;6.286;2023-01-06T03:12:21;100114.22;;;12.33;97.28
51321;BME280;38732;49.556;6.286;2023-01-06T03:14:54;100110.00;;;12.56;95.78
51321;BME280;38732;49.556;6.286;2023-01-06T03:17:23;100114.16;;;12.09;99.35
51321;BME280;38732;49.556;6.286;2023-01-06T03:19:52;100115.94;;;12.26;98.42
51321;BME280;38732;49.556;6.286;2023-01-06T03:22:22;100097.91;;;12.64;94.89
51321;BME280;38732;49.556;6.286;2023-01-06T03:24:51;100098.75;;;12.43;98.02
51321;BME280;38732;49.556;6.286;2023-01-06T03:27:23;100111.75;;;12.74;93.10
51321;BME280;38732;49.556;6.286;2023-01-06T03:29:52;100102.97;;;12.14;95.12
51321;BME280;38732;49.556;6.286;2023-01-06T03:32:53;100110.69;;;12.06;99.48
51321;BME280;38732;49.556;6.286;2023-01-06T03:35:35;100104.56;;;11.90;100.00
51321;BME280;38732;49.556;6.286;2023-01-06T03:41:28;100102.72;;;11.74;100.00
51321;BME280;38732;49.556;6.286;2023-01-06T03:44:05;100106.53;;;11.02;100.00
51321;BME280;38732;49.556;6.286;2023-01-06T03:46:51;100113.09;;;10.67;100.00
51321;BME280;38732;49.556;6.286;2023-01-06T03:49:30;100106.28;;;11.90;100.00
51321;BME280;38732;49.556;6.286;2023-01-06T03:52:08;100110.38;;;11.55;100.00
51321;BME280;38732;49.556;6.286;2023-01-06T03:54:51;100109.03;;;12.33;99.20
51321;BME280;38732;49.556;6.286;2023-01-06T03:57:28;100110.50;;;11.77;100.00
51321;BME280;38732;49.556;6.286;2023-01-06T04:00:04;100114.56;;;11.38;100.00
51321;BME280;38732;49.556;6.286;2023-01-06T04:02:36;100094.41;;;12.42;97.21
51321;BME280;38732;49.556;6.286;2023-01-06T04:05:14;100100.84;;;11.48;100.00
51321;BME280;38732;49.556;6.286;2023-01-06T04:07:45;100101.56;;;10.31;100.00
51321;BME280;38732;49.556;6.286;2023-01-06T04:10:15;100100.09;;;11.66;100.00
51321;BME280;38732;49.556;6.286;2023-01-06T04:12:43;100095.09;;;11.89;100.00
51321;BME280;38732;49.556;6.286;2023-01-06T04:15:23;100098.78;;;12.62;95.11
51321;BME280;38732;49.556;6.286;2023-01-06T04:17:52;100093.63;;;12.95;90.94
51321;BME280;38732;49.556;6.286;2023-01-06T04:20:24;100087.59;;;13.01;90.67
51321;BME280;38732;49.556;6.286;2023-01-06T04:22:53;100080.69;;;12.95;92.36
51321;BME280;38732;49.556;6.286;2023-01-06T04:25:22;100084.13;;;13.04;91.76
51321;BME280;38732;49.556;6.286;2023-01-06T04:27:51;100081.53;;;13.04;91.48
51321;BME280;38732;49.556;6.286;2023-01-06T04:30:19;100073.75;;;12.93;93.65
51321;BME280;38732;49.556;6.286;2023-01-06T04:32:48;100085.84;;;12.82;92.57
51321;BME280;38732;49.556;6.286;2023-01-06T04:35:16;100086.69;;;12.98;91.18
51321;BME280;38732;49.556;6.286;2023-01-06T04:37:44;100088.31;;;12.25;94.99
51321;BME280;38732;49.556;6.286;2023-01-06T04:40:12;100092.69;;;12.44;94.86
51321;BME280;38732;49.556;6.286;2023-01-06T04:42:41;100088.34;;;12.37;94.38
51321;BME280;38732;49.556;6.286;2023-01-06T04:45:09;100084.91;;;12.34;92.67
51321;BME280;38732;49.556;6.286;2023-01-06T04:47:37;100082.38;;;12.70;91.47
51321;BME280;38732;49.556;6.286;2023-01-06T04:50:05;100091.78;;;12.35;93.50
51321;BME280;38732;49.556;6.286;2023-01-06T04:52:34;100076.34;;;12.94;90.78
51321;BME280;38732;49.556;6.286;2023-01-06T04:55:02;100065.97;;;12.81;91.41
51321;BME280;38732;49.556;6.286;2023-01-06T04:57:30;100074.09;;;11.44;100.00
51321;BME280;38732;49.556;6.286;2023-01-06T04:59:58;100085.69;;;12.13;95.07
51321;BME280;38732;49.556;6.286;2023-01-06T05:02:27;100078.03;;;12.65;93.00
51321;BME280;38732;49.556;6.286;2023-01-06T05:04:55;100068.44;;;12.25;95.07
51321;BME280;38732;49.556;6.286;2023-01-06T05:07:23;100076.19;;;12.15;95.86
51321;BME280;38732;49.556;6.286;2023-01-06T05:09:51;100078.94;;;12.79;90.76
51321;BME280;38732;49.556;6.286;2023-01-06T05:12:19;100074.34;;;11.86;98.62
51321;BME280;38732;49.556;6.286;2023-01-06T05:14:48;100071.69;;;11.77;97.61
51321;BME280;38732;49.556;6.286;2023-01-06T05:17:16;100077.88;;;12.02;96.17
51321;BME280;38732;49.556;6.286;2023-01-06T05:19:44;100083.13;;;10.81;100.00
51321;BME280;38732;49.556;6.286;2023-01-06T05:22:12;100083.94;;;12.04;97.30
51321;BME280;38732;49.556;6.286;2023-01-06T05:24:41;100093.19;;;11.63;99.66
51321;BME280;38732;49.556;6.286;2023-01-06T05:27:09;100081.69;;;11.20;100.00
51321;BME280;38732;49.556;6.286;2023-01-06T05:29:37;100076.88;;;11.77;99.41
51321;BME280;38732;49.556;6.286;2023-01-06T05:32:06;100074.50;;;12.24;93.19
51321;BME280;38732;49.556;6.286;2023-01-06T05:34:34;100079.44;;;11.75;97.45
51321;BME280;38732;49.556;6.286;2023-01-06T05:37:02;100090.72;;;10.67;100.00
51321;BME280;38732;49.556;6.286;2023-01-06T05:39:30;100097.53;;;11.69;99.82
51321;BME280;38732;49.556;6.286;2023-01-06T05:41:58;100109.69;;;9.98;100.00
51321;BME280;38732;49.556;6.286;2023-01-06T05:44:27;100102.19;;;10.18;100.00
51321;BME280;38732;49.556;6.286;2023-01-06T05:46:55;100100.16;;;9.90;100.00
51321;BME280;38732;49.556;6.286;2023-01-06T05:49:23;100104.00;;;9.56;100.00
51321;BME280;38732;49.556;6.286;2023-01-06T05:51:51;100098.16;;;10.36;100.00
51321;BME280;38732;49.556;6.286;2023-01-06T05:54:19;100099.72;;;10.24;100.00
51321;BME280;38732;49.556;6.286;2023-01-06T05:56:48;100106.19;;;10.64;100.00
51321;BME280;38732;49.556;6.286;2023-01-06T05:59:16;100105.19;;;10.48;100.00
51321;BME280;38732;49.556;6.286;2023-01-06T06:01:44;100097.47;;;11.60;100.00
51321;BME280;38732;49.556;6.286;2023-01-06T06:04:12;100092.38;;;11.75;100.00
51321;BME280;38732;49.556;6.286;2023-01-06T06:06:40;100096.59;;;11.58;100.00
51321;BME280;38732;49.556;6.286;2023-01-06T06:09:09;100113.50;;;9.60;100.00
51321;BME280;38732;49.556;6.286;2023-01-06T06:11:37;100109.69;;;9.96;100.00
51321;BME280;38732;49.556;6.286;2023-01-06T06:14:07;100110.50;;;10.65;100.00
51321;BME280;38732;49.556;6.286;2023-01-06T06:16:36;100116.50;;;10.63;100.00
51321;BME280;38732;49.556;6.286;2023-01-06T06:19:04;100108.03;;;11.91;100.00
51321;BME280;38732;49.556;6.286;2023-01-06T06:21:32;100107.69;;;11.43;100.00
51321;BME280;38732;49.556;6.286;2023-01-06T06:24:00;100106.34;;;11.99;99.55
51321;BME280;38732;49.556;6.286;2023-01-06T06:26:28;100110.34;;;11.52;100.00
51321;BME280;38732;49.556;6.286;2023-01-06T06:28:57;100102.00;;;11.98;97.28
51321;BME280;38732;49.556;6.286;2023-01-06T06:31:27;100101.31;;;12.49;93.18
51321;BME280;38732;49.556;6.286;2023-01-06T06:33:57;100101.13;;;11.90;99.01
51321;BME280;38732;49.556;6.286;2023-01-06T06:36:27;100102.00;;;11.95;94.36
51321;BME280;38732;49.556;6.286;2023-01-06T06:38:56;100115.69;;;11.83;99.82
51321;BME280;38732;49.556;6.286;2023-01-06T06:41:24;100121.53;;;11.50;98.52
51321;BME280;38732;49.556;6.286;2023-01-06T06:43:53;100120.06;;;11.87;98.74
51321;BME280;38732;49.556;6.286;2023-01-06T06:46:21;100124.81;;;11.26;100.00
51321;BME280;38732;49.556;6.286;2023-01-06T06:48:50;100122.88;;;10.21;100.00
51321;BME280;38732;49.556;6.286;2023-01-06T06:51:20;100121.22;;;10.26;100.00
51321;BME280;38732;49.556;6.286;2023-01-06T06:53:49;100121.13;;;10.94;100.00
51321;BME280;38732;49.556;6.286;2023-01-06T06:56:19;100130.94;;;10.44;100.00
51321;BME280;38732;49.556;6.286;2023-01-06T06:58:47;100125.44;;;10.94;100.00
51321;BME280;38732;49.556;6.286;2023-01-06T07:01:17;100129.84;;;11.10;100.00
51321;BME280;38732;49.556;6.286;2023-01-06T07:03:46;100124.56;;;12.26;97.15
51321;BME280;38732;49.556;6.286;2023-01-06T07:06:19;100136.34;;;11.69;100.00
51321;BME280;38732;49.556;6.286;2023-01-06T07:08:49;100141.31;;;11.38;100.00
51321;BME280;38732;49.556;6.286;2023-01-06T07:11:18;100143.13;;;11.52;100.00
51321;BME280;38732;49.556;6.286;2023-01-06T07:13:47;100143.13;;;11.53;100.00
51321;BME280;38732;49.556;6.286;2023-01-06T07:16:15;100142.41;;;11.74;100.00
51321;BME280;38732;49.556;6.286;2023-01-06T07:18:43;100135.03;;;12.57;93.16
51321;BME280;38732;49.556;6.286;2023-01-06T07:21:12;100134.88;;;12.17;96.23
51321;BME280;38732;49.556;6.286;2023-01-06T07:23:40;100126.34;;;12.43;92.69
51321;BME280;38732;49.556;6.286;2023-01-06T07:26:08;100132.19;;;11.93;93.43
51321;BME280;38732;49.556;6.286;2023-01-06T07:28:36;100138.72;;;10.47;100.00
51321;BME280;38732;49.556;6.286;2023-01-06T07:31:04;100142.91;;;11.26;100.00
51321;BME280;38732;49.556;6.286;2023-01-06T07:33:33;100143.03;;;10.48;100.00
51321;BME280;38732;49.556;6.286;2023-01-06T07:36:01;100139.47;;;10.38;100.00
51321;BME280;38732;49.556;6.286;2023-01-06T07:38:29;100136.22;;;11.52;100.00
51321;BME280;38732;49.556;6.286;2023-01-06T07:40:58;100140.72;;;10.75;100.00
51321;BME280;38732;49.556;6.286;2023-01-06T07:43:27;100135.44;;;9.91;100.00
51321;BME280;38732;49.556;6.286;2023-01-06T07:45:56;100137.97;;;10.57;100.00
51321;BME280;38732;49.556;6.286;2023-01-06T07:48:24;100136.44;;;10.04;100.00
51321;BME280;38732;49.556;6.286;2023-01-06T07:50:53;100130.56;;;10.91;100.00
51321;BME280;38732;49.556;6.286;2023-01-06T07:53:21;100139.06;;;10.79;100.00
51321;BME280;38732;49.556;6.286;2023-01-06T07:55:52;100140.81;;;10.82;100.00
51321;BME280;38732;49.556;6.286;2023-01-06T07:58:21;100132.63;;;11.35;100.00
51321;BME280;38732;49.556;6.286;2023-01-06T08:00:49;100133.06;;;10.83;100.00
51321;BME280;38732;49.556;6.286;2023-01-06T08:03:17;100132.88;;;11.70;100.00
51321;BME280;38732;49.556;6.286;2023-01-06T08:05:46;100127.31;;;11.15;100.00
51321;BME280;38732;49.556;6.286;2023-01-06T08:08:14;100141.50;;;10.64;100.00
51321;BME280;38732;49.556;6.286;2023-01-06T08:10:42;100130.34;;;10.69;100.00
51321;BME280;38732;49.556;6.286;2023-01-06T08:13:10;100141.84;;;10.21;100.00
51321;BME280;38732;49.556;6.286;2023-01-06T08:15:39;100145.25;;;10.19;100.00
51321;BME280;38732;49.556;6.286;2023-01-06T08:18:07;100134.28;;;10.35;100.00
51321;BME280;38732;49.556;6.286;2023-01-06T08:20:35;100142.56;;;10.87;100.00
51321;BME280;38732;49.556;6.286;2023-01-06T08:23:03;100140.72;;;10.75;100.00
51321;BME280;38732;49.556;6.286;2023-01-06T08:25:32;100153.78;;;10.86;100.00
51321;BME280;38732;49.556;6.286;2023-01-06T08:28:00;100150.03;;;11.54;100.00
51321;BME280;38732;49.556;6.286;2023-01-06T08:30:28;100153.28;;;10.43;100.00
51321;BME280;38732;49.556;6.286;2023-01-06T08:32:58;100144.53;;;11.13;100.00
51321;BME280;38732;49.556;6.286;2023-01-06T08:35:26;100141.59;;;11.81;100.00
51321;BME280;38732;49.556;6.286;2023-01-06T08:37:55;100150.47;;;12.29;98.88
51321;BME280;38732;49.556;6.286;2023-01-06T08:40:23;100149.25;;;11.66;100.00
51321;BME280;38732;49.556;6.286;2023-01-06T08:42:51;100149.09;;;11.48;100.00
51321;BME280;38732;49.556;6.286;2023-01-06T08:45:20;100162.03;;;11.48;100.00
51321;BME280;38732;49.556;6.286;2023-01-06T08:47:48;100153.78;;;11.96;100.00
51321;BME280;38732;49.556;6.286;2023-01-06T08:50:16;100165.41;;;11.37;100.00
51321;BME280;38732;49.556;6.286;2023-01-06T08:52:44;100171.56;;;10.60;100.00
51321;BME280;38732;49.556;6.286;2023-01-06T08:55:12;100173.78;;;11.10;100.00
51321;BME280;38732;49.556;6.286;2023-01-06T08:57:41;100172.09;;;11.11;100.00
51321;BME280;38732;49.556;6.286;2023-01-06T09:00:09;100170.38;;;11.13;100.00
51321;BME280;38732;49.556;6.286;2023-01-06T09:02:37;100167.13;;;11.34;100.00
51321;BME280;38732;49.556;6.286;2023-01-06T09:05:06;100165.72;;;11.82;100.00
51321;BME280;38732;49.556;6.286;2023-01-06T09:07:34;100158.69;;;11.62;100.00
51321;BME280;38732;49.556;6.286;2023-01-06T09:10:03;100164.16;;;10.92;100.00
51321;BME280;38732;49.556;6.286;2023-01-06T09:12:31;100165.81;;;10.87;100.00
51321;BME280;38732;49.556;6.286;2023-01-06T09:15:00;100155.03;;;11.33;100.00
51321;BME280;38732;49.556;6.286;2023-01-06T09:17:28;100161.63;;;10.97;100.00
51321;BME280;38732;49.556;6.286;2023-01-06T09:19:57;100159.31;;;10.42;100.00
51321;BME280;38732;49.556;6.286;2023-01-06T09:22:25;100172.31;;;9.86;100.00
51321;BME280;38732;49.556;6.286;2023-01-06T09:24:53;100170.13;;;10.13;100.00
51321;BME280;38732;49.556;6.286;2023-01-06T09:27:21;100169.81;;;10.57;100.00
51321;BME280;38732;49.556;6.286;2023-01-06T09:29:49;100169.94;;;11.64;100.00
51321;BME280;38732;49.556;6.286;2023-01-06T09:32:18;100168.00;;;11.36;100.00
51321;BME280;38732;49.556;6.286;2023-01-06T09:34:46;100165.06;;;10.96;100.00
51321;BME280;38732;49.556;6.286;2023-01-06T09:37:14;100177.72;;;10.06;100.00
51321;BME280;38732;49.556;6.286;2023-01-06T09:39:42;100167.63;;;10.94;100.00
51321;BME280;38732;49.556;6.286;2023-01-06T09:45:36;100174.06;;;11.42;100.00
51321;BME280;38732;49.556;6.286;2023-01-06T09:48:12;100184.59;;;11.67;100.00
51321;BME280;38732;49.556;6.286;2023-01-06T09:50:47;100194.31;;;12.00;100.00
51321;BME280;38732;49.556;6.286;2023-01-06T09:53:21;100196.72;;;10.78;100.00
51321;BME280;38732;49.556;6.286;2023-01-06T09:55:55;100195.44;;;11.18;100.00
51321;BME280;38732;49.556;6.286;2023-01-06T09:58:29;100194.03;;;10.67;100.00
51321;BME280;38732;49.556;6.286;2023-01-06T10:01:04;100195.81;;;10.71;100.00
51321;BME280;38732;49.556;6.286;2023-01-06T10:03:34;100192.00;;;11.22;100.00
51321;BME280;38732;49.556;6.286;2023-01-06T10:08:40;100172.72;;;10.87;100.00
51321;BME280;38732;49.556;6.286;2023-01-06T10:16:34;100175.31;;;11.95;100.00
51321;BME280;38732;49.556;6.286;2023-01-06T10:19:43;100177.03;;;11.89;100.00
51321;BME280;38732;49.556;6.286;2023-01-06T10:25:21;100171.91;;;12.02;100.00
51321;BME280;38732;49.556;6.286;2023-01-06T10:28:00;100184.09;;;12.16;100.00
51321;BME280;38732;49.556;6.286;2023-01-06T10:30:34;100183.34;;;12.44;100.00
51321;BME280;38732;49.556;6.286;2023-01-06T10:33:04;100188.59;;;11.28;100.00
51321;BME280;38732;49.556;6.286;2023-01-06T10:35:34;100184.25;;;11.26;100.00
51321;BME280;38732;49.556;6.286;2023-01-06T10:38:04;100185.59;;;11.86;100.00
51321;BME280;38732;49.556;6.286;2023-01-06T10:40:37;100182.63;;;12.94;100.00
51321;BME280;38732;49.556;6.286;2023-01-06T10:43:08;100184.84;;;12.02;100.00
51321;BME280;38732;49.556;6.286;2023-01-06T10:45:41;100189.44;;;11.24;100.00
51321;BME280;38732;49.556;6.286;2023-01-06T10:48:12;100178.19;;;12.49;100.00
51321;BME280;38732;49.556;6.286;2023-01-06T10:50:41;100186.56;;;11.96;100.00
51321;BME280;38732;49.556;6.286;2023-01-06T10:53:13;100179.09;;;11.26;100.00
51321;BME280;38732;49.556;6.286;2023-01-06T10:55:48;100180.53;;;11.98;100.00
51321;BME280;38732;49.556;6.286;2023-01-06T10:58:41;100184.66;;;10.77;100.00
51321;BME280;38732;49.556;6.286;2023-01-06T11:01:14;100180.63;;;11.04;100.00
51321;BME280;38732;49.556;6.286;2023-01-06T11:03:43;100173.19;;;11.40;100.00
51321;BME280;38732;49.556;6.286;2023-01-06T11:08:47;100175.13;;;10.70;100.00
51321;BME280;38732;49.556;6.286;2023-01-06T11:11:17;100180.31;;;10.73;100.00
51321;BME280;38732;49.556;6.286;2023-01-06T11:13:49;100171.72;;;10.74;100.00
51321;BME280;38732;49.556;6.286;2023-01-06T11:16:20;100164.22;;;10.24;100.00
51321;BME280;38732;49.556;6.286;2023-01-06T11:18:57;100162.97;;;10.63;100.00
51321;BME280;38732;49.556;6.286;2023-01-06T11:21:55;100165.38;;;10.44;100.00
51321;BME280;38732;49.556;6.286;2023-01-06T11:24:25;100154.53;;;10.77;100.00
51321;BME280;38732;49.556;6.286;2023-01-06T11:26:56;100149.44;;;10.84;100.00
51321;BME280;38732;49.556;6.286;2023-01-06T11:31:54;100149.09;;;11.44;100.00
51321;BME280;38732;49.556;6.286;2023-01-06T11:34:24;100156.13;;;10.65;100.00
51321;BME280;38732;49.556;6.286;2023-01-06T11:36:54;100150.94;;;10.62;100.00
51321;BME280;38732;49.556;6.286;2023-01-06T11:39:31;100158.72;;;10.68;100.00
51321;BME280;38732;49.556;6.286;2023-01-06T11:42:11;100142.13;;;10.46;100.00
51321;BME280;38732;49.556;6.286;2023-01-06T11:44:40;100140.94;;;10.97;100.00
51321;BME280;38732;49.556;6.286;2023-01-06T11:47:36;100136.59;;;10.93;100.00
51321;BME280;38732;49.556;6.286;2023-01-06T11:50:04;100141.44;;;11.63;100.00
51321;BME280;38732;49.556;6.286;2023-01-06T11:52:32;100125.88;;;11.55;100.00
51321;BME280;38732;49.556;6.286;2023-01-06T11:57:41;100124.59;;;12.40;100.00
51321;BME280;38732;49.556;6.286;2023-01-06T12:03:01;100141.69;;;10.85;100.00
51321;BME280;38732;49.556;6.286;2023-01-06T12:05:41;100128.97;;;12.46;100.00
51321;BME280;38732;49.556;6.286;2023-01-06T12:08:18;100139.66;;;11.51;100.00
51321;BME280;38732;49.556;6.286;2023-01-06T12:10:59;100130.75;;;11.12;100.00
51321;BME280;38732;49.556;6.286;2023-01-06T12:13:29;100120.00;;;11.82;100.00
51321;BME280;38732;49.556;6.286;2023-01-06T12:16:03;100116.00;;;12.49;100.00
51321;BME280;38732;49.556;6.286;2023-01-06T12:18:35;100105.66;;;12.49;100.00
51321;BME280;38732;49.556;6.286;2023-01-06T12:21:12;100102.25;;;12.85;100.00
51321;BME280;38732;49.556;6.286;2023-01-06T12:23:44;100109.34;;;11.32;100.00
51321;BME280;38732;49.556;6.286;2023-01-06T12:26:16;100105.81;;;11.20;100.00
51321;BME280;38732;49.556;6.286;2023-01-06T12:28:48;100106.19;;;11.74;100.00
51321;BME280;38732;49.556;6.286;2023-01-06T12:31:34;100101.91;;;11.85;100.00
51321;BME280;38732;49.556;6.286;2023-01-06T12:34:36;100106.72;;;11.26;100.00
51321;BME280;38732;49.556;6.286;2023-01-06T12:40:35;100108.09;;;12.06;100.00
51321;BME280;38732;49.556;6.286;2023-01-06T12:43:32;100110.50;;;11.77;100.00
51321;BME280;38732;49.556;6.286;2023-01-06T12:46:06;100115.88;;;12.09;100.00
51321;BME280;38732;49.556;6.286;2023-01-06T12:48:43;100115.81;;;12.03;100.00
51321;BME280;38732;49.556;6.286;2023-01-06T12:54:27;100108.97;;;12.06;100.00
51321;BME280;38732;49.556;6.286;2023-01-06T13:03:00;100096.03;;;12.06;100.00
51321;BME280;38732;49.556;6.286;2023-01-06T13:11:59;100101.28;;;12.37;100.00
51321;BME280;38732;49.556;6.286;2023-01-06T13:14:48;100097.66;;;11.89;100.00
51321;BME280;38732;49.556;6.286;2023-01-06T13:17:35;100104.69;;;12.16;100.00
51321;BME280;38732;49.556;6.286;2023-01-06T13:20:06;100109.13;;;11.01;100.00
51321;BME280;38732;49.556;6.286;2023-01-06T13:29:05;100105.50;;;10.82;100.00
51321;BME280;38732;49.556;6.286;2023-01-06T13:31:50;100108.22;;;10.96;100.00
51321;BME280;38732;49.556;6.286;2023-01-06T13:34:58;100096.97;;;10.91;100.00
51321;BME280;38732;49.556;6.286;2023-01-06T13:37:34;100100.84;;;11.48;100.00
51321;BME280;38732;49.556;6.286;2023-01-06T13:42:48;100100.78;;;11.36;100.00
51321;BME280;38732;49.556;6.286;2023-01-06T13:45:27;100094.78;;;11.43;100.00
51321;BME280;38732;49.556;6.286;2023-01-06T13:47:57;100088.31;;;12.19;100.00
51321;BME280;38732;49.556;6.286;2023-01-06T13:50:26;100103.53;;;11.65;100.00
51321;BME280;38732;49.556;6.286;2023-01-06T13:52:55;100094.50;;;11.08;100.00
51321;BME280;38732;49.556;6.286;2023-01-06T13:55:28;100101.03;;;11.76;100.00
51321;BME280;38732;49.556;6.286;2023-01-06T14:01:10;100101.88;;;11.78;100.00
51321;BME280;38732;49.556;6.286;2023-01-06T14:03:40;100103.91;;;10.96;100.00
51321;BME280;38732;49.556;6.286;2023-01-06T14:09:16;100086.50;;;12.02;100.00
51321;BME280;38732;49.556;6.286;2023-01-06T14:11:45;100100.25;;;11.89;100.00
51321;BME280;38732;49.556;6.286;2023-01-06T14:14:22;100097.06;;;11.03;100.00
51321;BME280;38732;49.556;6.286;2023-01-06T14:16:52;100105.22;;;11.60;100.00
51321;BME280;38732;49.556;6.286;2023-01-06T14:19:29;100105.13;;;11.44;100.00
51321;BME280;38732;49.556;6.286;2023-01-06T14:22:18;100108.00;;;10.73;100.00
51321;BME280;38732;49.556;6.286;2023-01-06T14:25:00;100099.66;;;11.03;100.00
51321;BME280;38732;49.556;6.286;2023-01-06T14:30:27;100106.56;;;11.07;100.00
51321;BME280;38732;49.556;6.286;2023-01-06T14:33:20;100092.31;;;11.63;100.00